KHMN

Holloman AFB Airport

Alamogordo, New Mexico, USA
METAR KHMN 180758Z AUTO 34007KT 10SM FEW060 SCT085 04/00 A3010 RMK AO2 DZE02 SLP175 P0000 T00361004 $
Observed Flight Rules
Dec-18 @ 07:58 UTC (52 minutes ago) Visual Flight Rules
Wind Visibility Clouds
340° at 7 knots 10 miles
  • Few at 6,000' AGL
  • Scattered at 8,500' AGL
Temperatures Readings Precipitation
Current 4°C / 39°F
Dewpoint -0°C / 32°F
Humidity 75%
Altimeter 30.1" Hg
Pressure 1017.5 hPa
Elevation 1248
Current Rain 0.005
METAR KHMN 180758Z AUTO 34007KT 10SM FEW060 SCT085 04/00 A3010 RMK AO2 DZE02 SLP175 P0000 T00361004 $
Observed Flight Rules
Dec-18 @ 07:58 UTC
(52 minutes ago)
VFR
Wind Visibility
340° at 7 knots 10 miles
Clouds
  • Few at 6,000' AGL
  • Scattered at 8,500' AGL
Temperature Dewpoint
4°C / 39°F -0°C / 32°F
Humidity Altimeter Pressure
75% 30.1" Hg 1017.5 hPa
Current Rain
0.005